createdAt,value
2023-05-09T00:08:47.163Z,2052.87939
2023-05-09T00:23:49.268Z,2364.49316
2023-05-09T00:38:51.216Z,7939.4165
2023-05-09T00:53:53.265Z,7599.96436
2023-05-09T01:08:55.261Z,4852.91357
2023-05-09T01:23:57.242Z,5091.7876
2023-05-09T01:38:59.407Z,1307.52075
2023-05-09T01:54:01.389Z,1170.12329
2023-05-09T02:09:03.341Z,1155.75488
2023-05-09T02:24:05.417Z,689.68127
2023-05-09T02:39:07.413Z,628.61572
2023-05-09T02:54:09.407Z,390.63977
2023-05-09T03:09:11.381Z,132.00931
2023-05-09T03:24:13.325Z,26.94067
2023-05-09T03:39:15.385Z,2.69407
2023-05-09T03:54:17.416Z,0
2023-05-09T04:09:19.388Z,0
2023-05-09T04:24:21.502Z,0
2023-05-09T04:39:23.471Z,0
2023-05-09T04:54:25.455Z,0
2023-05-09T05:09:27.485Z,0
2023-05-09T05:24:29.458Z,0
2023-05-09T05:39:31.455Z,0
2023-05-09T05:54:33.398Z,0
2023-05-09T06:09:35.339Z,0
2023-05-09T06:24:37.549Z,0
2023-05-09T06:39:39.500Z,0
2023-05-09T06:54:41.691Z,0
2023-05-09T07:09:43.686Z,0
2023-05-09T07:24:45.658Z,0
2023-05-09T07:39:47.684Z,0
2023-05-09T07:54:49.845Z,0
2023-05-09T08:09:51.846Z,0
2023-05-09T08:24:53.885Z,0
2023-05-09T08:39:55.866Z,0
2023-05-09T08:54:58.777Z,0
2023-05-09T09:10:00.781Z,0
2023-05-09T09:25:02.719Z,0
2023-05-09T09:40:04.770Z,0
2023-05-09T09:55:06.990Z,0
2023-05-09T10:10:09.076Z,0
2023-05-09T10:25:11.066Z,0
2023-05-09T10:40:13.038Z,0
2023-05-09T10:55:15.270Z,0
2023-05-09T11:10:17.613Z,0
2023-05-09T11:25:19.601Z,0
2023-05-09T11:40:21.696Z,0
2023-05-09T11:55:23.781Z,8.0822
2023-05-09T12:10:25.781Z,51.18728
2023-05-09T12:25:27.757Z,148.17371
2023-05-09T12:40:29.855Z,220.0155
2023-05-09T12:55:31.965Z,689.68127
2023-05-09T13:10:33.915Z,697.76349
2023-05-09T13:25:35.905Z,942.92358
2023-05-09T13:40:38.126Z,1738.57153
2023-05-09T13:55:40.094Z,1308.4187
2023-05-09T14:10:42.117Z,2207.33936
2023-05-09T14:25:44.139Z,2915.87891
2023-05-09T14:40:46.204Z,2968.8623
2023-05-09T14:55:48.245Z,8298.62598
2023-05-09T15:10:50.203Z,10773.5752
2023-05-09T15:25:52.339Z,16127.58594
2023-05-09T15:40:54.328Z,11112.12988
2023-05-09T15:55:56.312Z,8707.22559
2023-05-09T16:10:58.309Z,7277.57422
2023-05-09T16:26:00.449Z,6603.15918
2023-05-09T16:41:02.464Z,6210.72363
2023-05-09T16:56:04.515Z,5850.61621
2023-05-09T17:11:06.493Z,5809.30762
2023-05-09T17:26:08.539Z,2923.06323
2023-05-09T17:41:10.582Z,3792.34888
2023-05-09T17:56:12.609Z,3268.80176
2023-05-09T18:11:14.763Z,5172.60938
2023-05-09T18:26:16.808Z,5355.80615
2023-05-09T18:41:18.848Z,6003.28027
2023-05-09T18:56:20.833Z,6058.95752
2023-05-09T19:11:22.853Z,5340.53955
2023-05-09T19:26:24.933Z,6320.28223
2023-05-09T19:41:26.976Z,5598.27197
2023-05-09T19:56:28.942Z,4270.99512
2023-05-09T20:11:30.933Z,4662.53271
2023-05-09T20:26:32.995Z,3423.26172
2023-05-09T20:41:34.906Z,2900.61255
2023-05-09T20:56:36.946Z,3807.61523
2023-05-09T21:11:39.127Z,6355.30518
2023-05-09T21:26:41.117Z,6099.36865
2023-05-09T21:41:43.072Z,2485.72632
2023-05-09T21:56:45.049Z,2388.73975
2023-05-09T22:11:47.157Z,2380.65747
2023-05-09T22:26:49.295Z,2400.41406
2023-05-09T22:41:51.234Z,2799.13599
2023-05-09T22:56:53.294Z,5604.55811
2023-05-09T23:11:55.265Z,6738.76074
2023-05-09T23:26:57.280Z,6563.64648
2023-05-09T23:41:59.324Z,6210.72363
2023-05-09T23:57:01.439Z,7414.97168
